createdAt,value
2022-11-12T00:00:45.479Z,17.23
2022-11-12T00:03:07.426Z,17.10
2022-11-12T00:05:28.984Z,16.67
2022-11-12T00:07:50.418Z,17.40
2022-11-12T00:10:11.835Z,16.83
2022-11-12T00:12:33.310Z,17.63
2022-11-12T00:14:56.023Z,17.17
2022-11-12T00:17:17.281Z,16.80
2022-11-12T00:19:38.275Z,16.83
2022-11-12T00:21:59.545Z,17.00
2022-11-12T00:24:21.047Z,17.97
2022-11-12T00:26:42.245Z,16.80
2022-11-12T00:29:03.720Z,16.27
2022-11-12T00:31:26.413Z,16.60
2022-11-12T00:33:47.791Z,15.87
2022-11-12T00:36:09.096Z,16.50
2022-11-12T00:38:31.629Z,17.60
2022-11-12T00:40:53.059Z,16.10
2022-11-12T00:43:14.117Z,16.77
2022-11-12T00:45:35.756Z,16.30
2022-11-12T00:47:58.475Z,16.87
2022-11-12T00:50:19.657Z,16.27
2022-11-12T00:52:40.989Z,16.10
2022-11-12T00:55:02.711Z,17.13
2022-11-12T00:57:23.954Z,17.13
2022-11-12T00:59:45.147Z,15.83
2022-11-12T01:02:06.740Z,16.33
2022-11-12T01:04:28.936Z,16.03
2022-11-12T01:06:50.146Z,17.63
2022-11-12T01:09:11.235Z,16.43
2022-11-12T01:11:33.111Z,17.00
2022-11-12T01:13:55.321Z,16.03
2022-11-12T01:16:19.785Z,16.00
2022-11-12T01:18:41.243Z,16.83
2022-11-12T01:21:04.587Z,17.43
2022-11-12T01:23:25.784Z,17.43
2022-11-12T01:25:47.191Z,17.63
2022-11-12T01:28:08.180Z,18.43
2022-11-12T01:30:29.419Z,19.87
2022-11-12T01:32:50.869Z,22.73
2022-11-12T01:35:12.152Z,18.00
2022-11-12T01:37:34.562Z,17.17
2022-11-12T01:39:56.000Z,18.87
2022-11-12T01:42:17.246Z,20.97
2022-11-12T01:44:39.697Z,25.87
2022-11-12T01:47:03.707Z,31.70
2022-11-12T01:49:27.192Z,21.97
2022-11-12T01:51:50.347Z,19.43
2022-11-12T01:54:14.437Z,17.43
2022-11-12T01:56:35.423Z,18.70
2022-11-12T01:59:00.436Z,20.73
2022-11-12T02:01:22.032Z,18.00
2022-11-12T02:03:43.539Z,17.00
2022-11-12T02:06:07.170Z,16.37
2022-11-12T02:08:29.066Z,16.33
2022-11-12T02:10:52.511Z,15.10
2022-11-12T02:13:31.563Z,15.60
2022-11-12T02:15:53.107Z,13.97
2022-11-12T02:18:14.143Z,13.73
2022-11-12T02:20:35.652Z,14.40
2022-11-12T02:22:58.214Z,15.13
2022-11-12T02:25:20.717Z,15.13
2022-11-12T02:27:42.035Z,17.27
2022-11-12T02:30:03.182Z,18.23
2022-11-12T02:32:24.470Z,16.40
2022-11-12T02:34:47.525Z,15.33
2022-11-12T02:37:08.905Z,14.90
2022-11-12T02:39:31.482Z,16.30
2022-11-12T02:41:52.874Z,16.40
2022-11-12T02:44:14.066Z,16.13
2022-11-12T02:46:35.397Z,15.17
2022-11-12T02:48:56.618Z,15.37
2022-11-12T02:51:17.980Z,13.80
2022-11-12T02:53:38.893Z,12.83
2022-11-12T02:56:01.811Z,13.10
2022-11-12T02:58:23.647Z,11.30
2022-11-12T03:00:44.930Z,10.87
2022-11-12T03:03:06.260Z,11.20
2022-11-12T03:05:28.143Z,10.47
2022-11-12T03:07:49.316Z,12.33
2022-11-12T03:10:11.088Z,11.27
2022-11-12T03:12:34.025Z,11.03
2022-11-12T03:14:55.188Z,11.87
2022-11-12T03:17:16.662Z,9.67
2022-11-12T03:19:38.126Z,11.03
2022-11-12T03:21:59.095Z,10.50
2022-11-12T03:24:20.386Z,12.07
2022-11-12T03:26:41.662Z,11.60
2022-11-12T03:29:04.653Z,11.33
2022-11-12T03:31:26.161Z,10.83
2022-11-12T03:33:47.780Z,12.73
2022-11-12T03:36:09.106Z,12.90
2022-11-12T03:38:30.631Z,12.97
2022-11-12T03:40:52.094Z,13.40
2022-11-12T03:43:13.248Z,13.33
2022-11-12T03:45:35.797Z,13.27
2022-11-12T03:47:57.739Z,12.77
2022-11-12T03:50:19.812Z,14.67
2022-11-12T03:52:44.790Z,12.80
2022-11-12T03:55:06.537Z,13.27
2022-11-12T03:57:27.683Z,12.80
2022-11-12T03:59:49.067Z,12.50
2022-11-12T04:02:14.511Z,12.30
2022-11-12T04:04:49.657Z,11.80
2022-11-12T04:07:28.364Z,11.70
2022-11-12T04:09:49.685Z,10.77
2022-11-12T04:12:24.860Z,11.33
2022-11-12T04:14:46.434Z,11.03
2022-11-12T04:17:25.084Z,10.73
2022-11-12T04:20:05.553Z,10.17
2022-11-12T04:22:26.726Z,9.60
2022-11-12T04:25:04.775Z,9.60
2022-11-12T04:27:27.253Z,10.53
2022-11-12T04:30:06.404Z,10.20
2022-11-12T04:32:28.205Z,10.80
2022-11-12T04:34:51.331Z,10.23
2022-11-12T04:37:12.751Z,11.77
2022-11-12T04:39:33.971Z,10.23
2022-11-12T04:42:12.726Z,9.70
2022-11-12T04:44:51.533Z,10.90
2022-11-12T04:47:12.994Z,10.50
2022-11-12T04:49:34.408Z,10.60
2022-11-12T04:52:06.734Z,9.63
2022-11-12T04:54:28.127Z,10.03
2022-11-12T04:56:49.181Z,10.27
2022-11-12T04:59:10.516Z,11.33
2022-11-12T05:01:32.164Z,9.43
2022-11-12T05:03:53.448Z,10.53
2022-11-12T05:06:28.751Z,9.47
2022-11-12T05:08:51.462Z,8.93
2022-11-12T05:11:13.151Z,9.93
2022-11-12T05:13:34.171Z,8.87
2022-11-12T05:15:55.761Z,10.00
2022-11-12T05:18:17.192Z,8.83
2022-11-12T05:20:38.578Z,8.73
2022-11-12T05:23:06.828Z,9.03
2022-11-12T05:25:29.996Z,8.27
2022-11-12T05:27:51.504Z,8.83
2022-11-12T05:30:13.330Z,7.33
2022-11-12T05:32:34.919Z,8.53
2022-11-12T05:34:56.301Z,7.90
2022-11-12T05:37:17.955Z,8.70
2022-11-12T05:39:39.137Z,8.13
2022-11-12T05:42:17.079Z,7.60
2022-11-12T05:44:38.307Z,8.00
2022-11-12T05:46:59.387Z,8.40
2022-11-12T05:49:21.058Z,8.30
2022-11-12T05:51:42.584Z,7.37
2022-11-12T05:54:03.935Z,7.60
2022-11-12T05:56:25.147Z,7.30
2022-11-12T05:58:47.961Z,8.00
2022-11-12T06:01:09.046Z,8.10
2022-11-12T06:03:30.760Z,8.87
2022-11-12T06:05:53.047Z,9.47
2022-11-12T06:08:14.203Z,11.47
2022-11-12T06:10:36.016Z,13.13
2022-11-12T06:12:57.683Z,11.23
2022-11-12T06:15:21.203Z,10.03
2022-11-12T06:17:42.905Z,10.10
2022-11-12T06:20:04.138Z,10.43
2022-11-12T06:22:25.018Z,9.57
2022-11-12T06:24:46.622Z,9.20
2022-11-12T06:27:07.738Z,9.20
2022-11-12T06:29:30.111Z,9.73
2022-11-12T06:31:52.840Z,9.20
2022-11-12T06:34:13.761Z,9.87
2022-11-12T06:36:35.303Z,9.03
2022-11-12T06:38:56.741Z,9.83
2022-11-12T06:41:18.127Z,9.90
2022-11-12T06:43:40.061Z,9.97
2022-11-12T06:46:02.323Z,10.83
2022-11-12T06:48:25.125Z,9.57
2022-11-12T06:50:46.426Z,10.57
2022-11-12T06:53:07.733Z,10.87
2022-11-12T06:55:28.804Z,10.73
2022-11-12T06:57:52.683Z,10.10
2022-11-12T07:00:14.099Z,29.97
2022-11-12T07:02:36.684Z,14.13
2022-11-12T07:04:59.360Z,10.47
2022-11-12T07:07:20.737Z,10.20
2022-11-12T07:09:42.283Z,10.90
2022-11-12T07:12:03.423Z,10.00
2022-11-12T07:14:24.869Z,9.00
2022-11-12T07:16:46.183Z,10.77
2022-11-12T07:19:07.842Z,10.03
2022-11-12T07:21:30.186Z,10.60
2022-11-12T07:23:51.689Z,10.60
2022-11-12T07:26:14.016Z,9.50
2022-11-12T07:28:35.598Z,10.27
2022-11-12T07:30:57.932Z,8.70
2022-11-12T07:33:19.152Z,8.87
2022-11-12T07:35:40.485Z,7.93
2022-11-12T07:38:03.343Z,7.90
2022-11-12T07:40:24.842Z,8.50
2022-11-12T07:42:46.136Z,7.70
2022-11-12T07:45:08.111Z,7.33
2022-11-12T07:47:29.387Z,8.23
2022-11-12T07:49:53.851Z,7.83
2022-11-12T07:52:14.948Z,8.90
2022-11-12T07:54:37.899Z,8.97
2022-11-12T07:56:59.106Z,8.73
2022-11-12T07:59:20.254Z,9.53
2022-11-12T08:01:42.412Z,8.90
2022-11-12T08:04:04.890Z,9.10
2022-11-12T08:06:26.668Z,9.37
2022-11-12T08:08:48.011Z,8.50
2022-11-12T08:11:10.718Z,8.77
2022-11-12T08:13:32.450Z,9.20
2022-11-12T08:15:53.760Z,8.30
2022-11-12T08:18:15.326Z,8.70
2022-11-12T08:20:36.360Z,8.13
2022-11-12T08:23:00.703Z,8.00
2022-11-12T08:25:21.734Z,7.40
2022-11-12T08:27:44.191Z,8.77
2022-11-12T08:30:05.939Z,8.70
2022-11-12T08:32:27.449Z,8.07
2022-11-12T08:34:48.419Z,7.73
2022-11-12T08:37:09.816Z,7.90
2022-11-12T08:39:31.525Z,8.57
2022-11-12T08:41:53.188Z,9.13
2022-11-12T08:44:15.917Z,9.30
2022-11-12T08:46:37.168Z,8.80
2022-11-12T08:48:58.697Z,8.57
2022-11-12T08:51:20.185Z,8.87
2022-11-12T08:53:41.593Z,8.30
2022-11-12T08:56:02.961Z,8.43
2022-11-12T08:58:25.153Z,7.57
2022-11-12T09:00:47.933Z,7.30
2022-11-12T09:03:09.670Z,8.23
2022-11-12T09:05:30.958Z,6.67
2022-11-12T09:07:57.583Z,7.07
2022-11-12T09:10:18.994Z,7.27
2022-11-12T09:12:40.296Z,6.97
2022-11-12T09:15:30.741Z,7.23
2022-11-12T09:17:43.976Z,8.40
2022-11-12T09:20:05.600Z,7.33
2022-11-12T09:22:26.856Z,7.93
2022-11-12T09:24:48.228Z,9.40
2022-11-12T09:27:09.362Z,8.67
2022-11-12T09:29:30.938Z,7.73
2022-11-12T09:31:52.213Z,6.30
2022-11-12T09:34:15.125Z,7.00
2022-11-12T09:36:39.825Z,7.20
2022-11-12T09:39:01.520Z,6.70
2022-11-12T09:41:27.679Z,7.70
2022-11-12T09:43:51.183Z,7.87
2022-11-12T09:46:27.970Z,8.37
2022-11-12T09:48:54.014Z,8.80
2022-11-12T09:51:18.055Z,7.97
2022-11-12T09:53:44.289Z,7.67
2022-11-12T09:56:07.463Z,8.40
2022-11-12T09:58:28.805Z,7.77
2022-11-12T10:00:54.737Z,8.00
2022-11-12T10:03:21.459Z,8.30
2022-11-12T10:05:48.304Z,7.67
2022-11-12T10:08:26.829Z,7.60
2022-11-12T10:10:49.183Z,7.67
2022-11-12T10:13:16.992Z,8.13
2022-11-12T10:16:05.797Z,7.63
2022-11-12T10:18:32.887Z,7.30
2022-11-12T10:20:55.941Z,7.60
2022-11-12T10:23:19.432Z,7.33
2022-11-12T10:25:43.684Z,7.77
2022-11-12T10:28:10.121Z,7.50
2022-11-12T10:30:31.369Z,7.47
2022-11-12T10:32:53.365Z,7.80
2022-11-12T10:35:17.025Z,7.10
2022-11-12T10:37:40.781Z,7.80
2022-11-12T10:40:21.795Z,7.43
2022-11-12T10:42:58.465Z,7.43
2022-11-12T10:45:21.091Z,7.27
2022-11-12T10:47:43.723Z,6.67
2022-11-12T10:50:06.918Z,6.73
2022-11-12T10:52:28.372Z,8.20
2022-11-12T10:54:54.869Z,8.10
2022-11-12T10:57:24.049Z,8.30
2022-11-12T10:59:46.821Z,7.57
2022-11-12T11:02:17.519Z,8.70
2022-11-12T11:04:39.190Z,7.93
2022-11-12T11:07:03.804Z,7.73
2022-11-12T11:09:26.727Z,7.80
2022-11-12T11:11:51.903Z,8.77
2022-11-12T11:14:34.259Z,8.70
2022-11-12T11:16:58.913Z,8.93
2022-11-12T11:19:20.530Z,8.23
2022-11-12T11:21:58.527Z,8.50
2022-11-12T11:24:23.464Z,7.90
2022-11-12T11:27:00.794Z,7.87
2022-11-12T11:29:31.723Z,7.87
2022-11-12T11:31:54.775Z,8.13
2022-11-12T11:34:26.393Z,8.60
2022-11-12T11:36:52.922Z,7.60
2022-11-12T11:39:19.283Z,8.47
2022-11-12T11:41:47.922Z,8.10
2022-11-12T11:44:15.129Z,7.80
2022-11-12T11:46:46.579Z,8.10
2022-11-12T11:49:20.110Z,8.63
2022-11-12T11:51:52.586Z,8.00
2022-11-12T11:54:24.515Z,8.17
2022-11-12T11:56:47.094Z,8.30
2022-11-12T11:59:20.796Z,8.30
2022-11-12T12:01:52.625Z,8.17
2022-11-12T12:04:31.697Z,7.73
2022-11-12T12:07:02.381Z,8.03
2022-11-12T12:09:30.807Z,8.40
2022-11-12T12:11:59.801Z,8.57
2022-11-12T12:14:34.065Z,7.57
2022-11-12T12:17:03.831Z,7.77
2022-11-12T12:19:37.433Z,7.53
2022-11-12T12:22:11.108Z,7.57
2022-11-12T12:24:41.550Z,7.43
2022-11-12T12:27:11.050Z,8.17
2022-11-12T12:29:34.816Z,8.60
2022-11-12T12:32:01.430Z,8.30
2022-11-12T12:34:29.117Z,8.73
2022-11-12T12:36:51.834Z,10.17
2022-11-12T12:39:15.941Z,11.73
2022-11-12T12:41:40.630Z,9.77
2022-11-12T12:47:00.837Z,9.20
2022-11-12T12:49:57.312Z,9.03
2022-11-12T12:55:37.273Z,9.50
2022-11-12T13:01:04.061Z,9.37
2022-11-12T13:15:51.611Z,12.50
2022-11-12T13:36:26.461Z,9.70
2022-11-12T13:38:48.072Z,9.83
2022-11-12T13:41:12.323Z,10.63
2022-11-12T13:43:33.683Z,10.00
2022-11-12T13:45:56.267Z,10.40
2022-11-12T13:48:21.299Z,10.00
2022-11-12T13:50:42.720Z,10.40
2022-11-12T13:53:07.820Z,9.63
2022-11-12T13:55:29.199Z,9.90
2022-11-12T13:57:51.296Z,9.00
2022-11-12T14:00:26.440Z,9.60
2022-11-12T14:02:50.071Z,10.57
2022-11-12T14:05:15.509Z,10.00
2022-11-12T14:07:41.538Z,10.75
2022-11-12T14:10:06.843Z,10.20
2022-11-12T14:12:34.611Z,10.50
2022-11-12T14:15:04.510Z,10.33
2022-11-12T14:17:29.814Z,10.43
2022-11-12T14:20:02.273Z,9.87
2022-11-12T14:22:24.735Z,9.40
2022-11-12T14:24:48.130Z,9.43
2022-11-12T14:27:23.813Z,10.47
2022-11-12T14:29:45.008Z,10.43
2022-11-12T14:32:09.716Z,10.30
2022-11-12T14:34:33.089Z,9.73
2022-11-12T14:36:56.090Z,10.70
2022-11-12T14:39:17.279Z,10.20
2022-11-12T14:41:41.382Z,12.00
2022-11-12T14:44:13.260Z,10.13
2022-11-12T14:46:39.378Z,9.33
2022-11-12T14:49:02.091Z,9.53
2022-11-12T14:51:24.293Z,9.87
2022-11-12T14:53:47.050Z,10.40
2022-11-12T14:56:09.592Z,9.97
2022-11-12T14:58:31.164Z,10.23
2022-11-12T15:00:54.738Z,9.03
2022-11-12T15:03:18.891Z,10.43
2022-11-12T15:05:53.673Z,9.30
2022-11-12T15:08:28.375Z,10.70
2022-11-12T15:10:49.751Z,9.50
2022-11-12T15:13:11.941Z,10.10
2022-11-12T15:15:34.209Z,10.87
2022-11-12T15:18:01.767Z,9.83
2022-11-12T15:20:22.893Z,10.70
2022-11-12T15:22:50.028Z,10.90
2022-11-12T15:25:12.209Z,12.40
2022-11-12T15:27:38.375Z,11.60
2022-11-12T15:30:09.207Z,11.07
2022-11-12T15:32:33.392Z,16.60
2022-11-12T15:34:56.721Z,10.40
2022-11-12T15:37:23.450Z,10.40
2022-11-12T15:39:45.927Z,11.50
2022-11-12T15:42:13.866Z,11.33
2022-11-12T15:44:36.273Z,10.07
2022-11-12T15:46:58.950Z,11.07
2022-11-12T15:49:20.062Z,11.00
2022-11-12T15:51:42.669Z,10.90
2022-11-12T15:54:04.841Z,11.53
2022-11-12T15:56:26.380Z,11.57
2022-11-12T15:58:47.620Z,11.63
2022-11-12T16:01:08.824Z,11.30
2022-11-12T16:03:31.364Z,12.10
2022-11-12T16:05:52.406Z,12.50
2022-11-12T16:08:15.272Z,13.17
2022-11-12T16:10:37.219Z,12.43
2022-11-12T16:12:59.195Z,13.40
2022-11-12T16:15:22.415Z,12.90
2022-11-12T16:17:43.700Z,15.70
2022-11-12T16:20:07.167Z,14.77
2022-11-12T16:22:28.558Z,20.40
2022-11-12T16:24:51.648Z,17.20
2022-11-12T16:27:13.880Z,16.47
2022-11-12T16:29:35.206Z,14.97
2022-11-12T16:31:56.191Z,14.83
2022-11-12T16:34:17.678Z,14.37
2022-11-12T16:36:38.866Z,13.90
2022-11-12T16:38:59.852Z,14.13
2022-11-12T16:41:22.662Z,15.30
2022-11-12T16:43:43.879Z,14.73
2022-11-12T16:46:08.058Z,13.20
2022-11-12T16:48:29.524Z,13.57
2022-11-12T16:50:50.586Z,13.10
2022-11-12T16:53:11.905Z,11.90
2022-11-12T16:55:33.264Z,11.27
2022-11-12T16:57:56.290Z,11.03
2022-11-12T17:00:18.299Z,10.63
2022-11-12T17:02:44.530Z,10.93
2022-11-12T17:05:09.374Z,11.70
2022-11-12T17:07:30.630Z,12.83
2022-11-12T17:09:52.342Z,12.63
2022-11-12T17:12:13.850Z,12.53
2022-11-12T17:14:36.547Z,12.87
2022-11-12T17:16:57.796Z,19.80
2022-11-12T17:19:19.625Z,21.97
2022-11-12T17:21:40.988Z,15.73
2022-11-12T17:24:02.420Z,22.37
2022-11-12T17:26:23.663Z,22.87
2022-11-12T17:28:44.742Z,22.90
2022-11-12T17:31:08.860Z,20.30
2022-11-12T17:33:30.174Z,19.50
2022-11-12T17:35:52.080Z,17.57
2022-11-12T17:38:13.260Z,16.13
2022-11-12T17:40:34.403Z,17.30
2022-11-12T17:42:55.688Z,18.63
2022-11-12T17:45:16.975Z,19.33
2022-11-12T17:47:40.756Z,19.03
2022-11-12T17:50:02.141Z,18.00
2022-11-12T17:52:23.539Z,18.43
2022-11-12T17:54:44.804Z,18.73
2022-11-12T17:57:06.044Z,18.53
2022-11-12T17:59:27.675Z,17.53
2022-11-12T18:10:42.745Z,14.93
2022-11-12T18:13:04.095Z,14.47
2022-11-12T18:15:25.446Z,14.53
2022-11-12T18:17:46.916Z,13.13
2022-11-12T18:20:08.721Z,12.57
2022-11-12T18:22:29.772Z,13.27
2022-11-12T18:24:52.761Z,14.27
2022-11-12T18:27:15.415Z,13.33
2022-11-12T18:29:37.027Z,13.37
2022-11-12T18:31:58.111Z,12.83
2022-11-12T18:34:19.299Z,11.43
2022-11-12T18:36:40.791Z,13.40
2022-11-12T18:39:04.715Z,12.67
2022-11-12T18:41:28.419Z,13.40
2022-11-12T18:43:50.970Z,13.77
2022-11-12T18:46:12.460Z,13.57
2022-11-12T18:48:34.440Z,15.80
2022-11-12T18:50:58.344Z,14.53
2022-11-12T18:53:19.601Z,15.40
2022-11-12T18:55:40.850Z,15.30
2022-11-12T18:58:02.106Z,15.10
2022-11-12T19:00:25.844Z,15.80
2022-11-12T19:02:47.888Z,16.10
2022-11-12T19:05:09.443Z,14.57
2022-11-12T19:07:30.525Z,13.97
2022-11-12T19:09:51.623Z,14.87
2022-11-12T19:12:12.904Z,14.33
2022-11-12T19:14:34.262Z,14.10
2022-11-12T19:16:56.679Z,13.80
2022-11-12T19:19:18.280Z,14.50
2022-11-12T19:21:39.597Z,15.03
2022-11-12T19:24:01.096Z,15.50
2022-11-12T19:26:22.997Z,14.17
2022-11-12T19:28:44.692Z,14.70
2022-11-12T19:31:07.212Z,14.13
2022-11-12T19:33:29.703Z,17.33
2022-11-12T19:35:50.727Z,20.13
2022-11-12T19:38:12.122Z,17.10
2022-11-12T19:40:33.192Z,19.43
2022-11-12T19:42:54.210Z,17.77
2022-11-12T19:45:15.583Z,18.00
2022-11-12T19:47:37.895Z,25.73
2022-11-12T19:50:00.378Z,22.53
2022-11-12T19:52:22.045Z,21.30
2022-11-12T19:54:43.255Z,19.37
2022-11-12T19:57:04.303Z,16.23
2022-11-12T19:59:25.848Z,15.23
2022-11-12T20:01:47.639Z,16.03
2022-11-12T20:04:09.103Z,15.57
2022-11-12T20:06:31.730Z,16.73
2022-11-12T20:08:53.213Z,15.97
2022-11-12T20:11:16.076Z,16.43
2022-11-12T20:13:37.016Z,14.77
2022-11-12T20:15:58.246Z,13.93
2022-11-12T20:18:19.507Z,12.40
2022-11-12T20:20:40.608Z,13.10
2022-11-12T20:23:03.181Z,13.97
2022-11-12T20:25:24.160Z,12.80
2022-11-12T20:27:45.591Z,14.47
2022-11-12T20:30:07.659Z,15.00
2022-11-12T20:32:28.720Z,16.00
2022-11-12T20:34:50.067Z,14.83
2022-11-12T20:37:11.724Z,15.43
2022-11-12T20:39:34.217Z,14.57
2022-11-12T20:41:55.401Z,15.87
2022-11-12T20:44:16.683Z,16.20
2022-11-12T20:46:38.344Z,18.87
2022-11-12T20:48:59.710Z,18.93
2022-11-12T20:51:24.113Z,17.87
2022-11-12T20:53:47.191Z,19.37
2022-11-12T20:56:10.640Z,19.47
2022-11-12T20:58:32.308Z,18.17
2022-11-12T21:00:53.733Z,17.37
2022-11-12T21:03:14.773Z,17.90
2022-11-12T21:05:36.114Z,17.17
2022-11-12T21:07:57.543Z,15.93
2022-11-12T21:10:19.031Z,15.97
2022-11-12T21:12:41.802Z,17.27
2022-11-12T21:15:03.178Z,19.17
2022-11-12T21:17:24.215Z,20.97
2022-11-12T21:19:45.433Z,21.17
2022-11-12T21:22:06.792Z,21.43
2022-11-12T21:24:28.103Z,20.20
2022-11-12T21:26:49.410Z,22.77
2022-11-12T21:29:14.437Z,21.97
2022-11-12T21:31:37.875Z,20.63
2022-11-12T21:34:00.309Z,20.07
2022-11-12T21:36:21.781Z,20.40
2022-11-12T21:38:43.522Z,21.57
2022-11-12T21:41:05.756Z,20.90
2022-11-12T21:43:27.244Z,19.97
2022-11-12T21:45:50.038Z,19.23
2022-11-12T21:48:12.622Z,20.07
2022-11-12T21:50:34.054Z,19.43
2022-11-12T21:52:56.877Z,19.27
2022-11-12T21:55:18.196Z,20.00
2022-11-12T21:57:39.536Z,20.17
2022-11-12T22:00:26.625Z,19.87
2022-11-12T22:02:43.782Z,17.43
2022-11-12T22:05:04.717Z,13.53
2022-11-12T22:07:26.108Z,12.80
2022-11-12T22:09:50.281Z,15.73
2022-11-12T22:12:13.968Z,18.57
2022-11-12T22:14:35.579Z,21.33
2022-11-12T22:16:57.279Z,20.53
2022-11-12T22:19:21.726Z,21.33
2022-11-12T22:21:43.891Z,19.43
2022-11-12T22:24:05.670Z,21.83
2022-11-12T22:29:51.815Z,21.90
2022-11-12T22:32:12.854Z,19.73
2022-11-12T22:34:35.530Z,24.00
2022-11-12T22:36:56.678Z,20.93
2022-11-12T22:39:18.486Z,21.97
2022-11-12T22:41:39.976Z,21.13
2022-11-12T22:44:02.806Z,21.57
2022-11-12T22:46:24.611Z,23.97
2022-11-12T22:48:45.764Z,25.00
2022-11-12T22:51:09.375Z,23.43
2022-11-12T22:53:30.651Z,25.17
2022-11-12T22:55:51.668Z,25.57
2022-11-12T22:58:13.724Z,25.43
2022-11-12T23:00:34.599Z,24.17
2022-11-12T23:02:55.975Z,24.40
2022-11-12T23:05:17.428Z,22.80
2022-11-12T23:07:40.316Z,23.20
2022-11-12T23:10:01.570Z,21.73
2022-11-12T23:12:22.823Z,22.57
2022-11-12T23:14:43.973Z,21.73
2022-11-12T23:17:05.523Z,20.63
2022-11-12T23:19:27.244Z,22.47
2022-11-12T23:21:49.021Z,22.43
2022-11-12T23:24:12.272Z,20.87
2022-11-12T23:26:34.030Z,22.43
2022-11-12T23:28:55.154Z,23.13
2022-11-12T23:31:18.189Z,19.17
2022-11-12T23:33:39.196Z,21.53
2022-11-12T23:36:07.054Z,23.77
2022-11-12T23:38:28.579Z,23.13
2022-11-12T23:40:55.627Z,25.77
2022-11-12T23:43:17.010Z,22.53
2022-11-12T23:45:38.792Z,24.63
2022-11-12T23:47:59.973Z,24.50
2022-11-12T23:50:21.294Z,23.20
2022-11-12T23:52:42.634Z,23.00
2022-11-12T23:55:04.369Z,22.90
2022-11-12T23:57:27.170Z,21.93
2022-11-12T23:59:48.440Z,21.97
